EGPK/PIK METAR and TAF weather

Enter ICAO airport designator
Station Type Date Time Source
EGPK METAR 2020/04/05 20:20 UTC NOAA

EGPK 052020Z 16024KT 9999 -RA SCT046 16/09 Q0998


Station Type Date Time Source
EGPK Decoded METAR 2020/04/05 20:20 UTC NOAA

Prestwick Airport, United Kingdom (EGPK) 55-30N 004-35W 0M
Apr 05, 2020 - 04:20 PM EDT / 2020.04.05 2020 UTC
Wind: from the SSE (160 degrees) at 28 MPH (24 KT):0
Visibility: greater than 7 mile(s):0
Sky conditions: partly cloudy
Weather: light rain
Temperature: 60 F (16 C)
Dew Point: 48 F (9 C)
Relative Humidity: 63%
Pressure (altimeter): 29.47 in. Hg (0998 hPa)
ob: EGPK 052020Z 16024KT 9999 -RA SCT046 16/09 Q0998
cycle: 20

Station Type Date Time Source
EGPK TAF 2020/04/05 18:09 UTC NOAA

TAF EGPK 051657Z 0518/0618 14009KT 9999 FEW045 PROB40
TEMPO 0518/0524 15018G28KT PROB40
TEMPO 0518/0603 6000 RA BKN012
BECMG 0600/0603 21012KT PROB40
TEMPO 0603/0615 24018G30KT PROB30
TEMPO 0610/0618 6000 SHRA

Example: see airport list